Date,TemperatureHighF,TemperatureAvgF,TemperatureLowF,DewpointHighF,DewpointAvgF,DewpointLowF,HumidityHigh,HumidityAvg,HumidityLow,PressureMaxIn,PressureMinIn,WindSpeedMaxMPH,WindSpeedAvgMPH,GustSpeedMaxMPH,PrecipitationSumIn
2013-1-1,28,19,2,22,10,-1,87,69,44,0.00,40.00,8,3,0,0.00
2013-1-2,23,13,3,16,9,0,86,80,74,0.00,40.00,9,5,0,0.00
2013-1-3,28,19,9,23,13,2,83,76,70,0.00,40.00,14,9,0,0.00
2013-1-4,27,23,18,22,17,13,81,75,69,0.00,40.00,19,14,0,0.00
2013-1-5,32,23,11,30,19,8,92,82,72,0.00,40.00,13,8,0,0.00
2013-1-6,34,32,31,30,28,24,89,82,74,0.00,40.00,13,10,0,0.01
2013-1-7,32,30,26,24,23,20,81,75,70,0.00,40.00,16,9,0,0.00
2013-1-8,34,28,21,26,22,18,85,78,70,0.00,40.00,10,6,0,0.00
2013-1-9,43,37,30,31,28,23,80,69,52,0.00,40.00,15,9,0,0.00
2013-1-10,38,31,23,31,26,21,93,81,68,0.00,40.00,9,4,0,0.07
2013-1-11,57,45,35,50,41,31,94,87,76,0.00,40.00,15,8,0,0.78
2013-1-12,58,50,47,50,46,43,92,84,75,0.00,40.00,11,7,0,0.05
2013-1-13,51,40,33,49,38,30,93,90,87,0.00,40.00,13,7,0,0.94
2013-1-14,32,25,19,28,18,15,86,75,66,0.00,40.00,15,7,0,0.00
2013-1-15,29,22,14,19,16,12,91,77,58,0.00,40.00,6,1,0,0.00
2013-1-16,36,28,20,25,20,17,89,72,52,0.00,40.00,15,7,0,0.00
2013-1-17,38,31,19,27,21,9,88,67,47,0.00,40.00,15,8,0,0.00
2013-1-18,34,26,18,20,14,8,69,61,53,0.00,40.00,19,9,0,0.00
2013-1-19,47,39,33,32,26,21,70,60,50,0.00,40.00,18,15,0,0.00
2013-1-20,41,25,18,32,11,3,71,55,44,0.00,40.00,24,15,0,0.00
2013-1-21,18,15,7,11,6,0,78,65,53,0.00,40.00,18,11,0,0.00
2013-1-22,10,4,-1,4,-3,-11,79,69,59,0.00,40.00,10,7,0,0.00
2013-1-23,17,10,1,11,2,-4,86,72,55,0.00,40.00,13,6,0,0.00
2013-1-24,21,13,6,11,5,1,88,71,42,0.00,40.00,8,4,0,0.00
2013-1-25,19,17,14,17,12,6,91,80,67,0.00,40.00,8,4,0,0.00
2013-1-26,27,21,9,18,15,5,91,78,58,0.00,40.00,9,4,0,0.01
2013-1-27,28,19,6,26,14,3,94,81,61,0.00,40.00,10,4,0,0.00
2013-1-28,45,38,29,44,37,27,95,93,90,0.00,40.00,12,7,0,0.28
2013-1-29,57,48,36,53,46,35,95,91,82,0.00,40.00,14,9,0,0.76
2013-1-30,62,51,36,55,47,31,93,85,76,0.00,40.00,22,12,0,0.22
2013-1-31,33,21,16,26,13,9,86,71,58,0.00,40.00,21,17,0,0.00
2013-2-1,18,15,12,10,7,3,82,70,59,0.00,40.00,17,14,0,0.00
2013-2-2,22,16,9,19,12,4,90,83,70,0.00,40.00,11,8,0,0.00
2013-2-3,21,12,-5,15,6,-9,86,79,69,0.00,40.00,13,6,0,0.00
2013-2-4,23,19,17,21,16,12,91,88,78,0.00,40.00,5,3,0,0.00
2013-2-5,26,21,15,24,18,12,92,87,75,0.00,40.00,11,5,0,0.00
2013-2-6,28,21,1,24,12,-3,91,70,49,0.00,40.00,11,4,0,0.03
2013-2-7,36,29,23,26,22,14,82,74,65,0.00,40.00,10,6,0,0.01
2013-2-8,31,27,16,29,22,12,94,83,71,0.00,40.00,13,7,0,0.00
2013-2-9,32,19,8,21,14,5,89,80,59,0.00,40.00,7,2,0,0.02
2013-2-10,42,31,21,34,25,18,90,76,66,0.00,40.00,14,6,0,0.05
2013-2-11,44,38,32,41,31,23,86,74,66,0.00,40.00,23,17,0,0.00
2013-2-12,33,31,29,24,23,21,76,71,66,0.00,40.00,16,10,0,0.00
2013-2-13,36,29,26,25,22,19,82,73,63,0.00,40.00,7,5,0,0.00
2013-2-14,39,34,29,34,29,25,86,79,68,0.00,40.00,18,11,0,0.00
2013-2-15,34,29,24,26,18,13,80,64,51,0.00,40.00,15,8,0,0.00
2013-2-16,26,22,16,19,14,9,84,70,52,0.00,40.00,12,7,0,0.00
2013-2-17,24,18,11,12,7,4,85,65,41,0.00,40.00,12,6,0,0.00
2013-2-18,47,31,16,33,18,8,70,58,42,0.00,40.00,14,9,0,0.00
2013-2-19,46,28,18,38,21,9,85,73,61,0.00,40.00,22,19,0,0.08
2013-2-20,22,20,16,14,10,7,76,65,56,0.00,40.00,15,12,0,0.00
2013-2-21,25,22,21,15,14,13,74,69,60,0.00,40.00,9,7,0,0.00
2013-2-22,34,27,22,32,24,16,94,88,77,0.00,40.00,11,8,0,0.13
2013-2-23,33,29,26,30,22,19,88,72,63,0.00,40.00,14,10,0,0.00
2013-2-24,36,27,17,26,21,14,88,77,63,0.00,40.00,12,6,0,0.00
2013-2-25,39,29,19,28,22,17,92,75,51,0.00,40.00,6,2,0,0.00
2013-2-26,33,31,28,31,25,21,95,80,68,0.00,40.00,13,9,0,0.25
2013-2-27,34,33,32,32,32,31,95,94,90,0.00,40.00,12,8,0,0.45
2013-2-28,37,33,30,31,30,27,95,86,73,0.00,40.00,12,8,0,0.07
2013-3-1,31,28,25,26,21,18,82,75,72,0.00,40.00,12,10,0,0.00
2013-3-2,26,25,24,20,18,16,80,74,70,0.00,40.00,9,8,0,0.00
2013-3-3,30,24,20,17,15,13,87,68,48,0.00,40.00,9,6,0,0.00
2013-3-4,34,24,15,21,15,12,85,69,45,0.00,40.00,6,3,0,0.00
2013-3-5,32,27,22,23,21,17,86,76,68,0.00,40.00,12,8,0,0.00
2013-3-6,40,33,27,27,25,22,83,72,57,0.00,40.00,9,6,0,0.00
2013-3-7,38,33,30,29,26,21,87,73,57,0.00,40.00,9,4,0,0.00
2013-3-8,45,31,22,26,22,18,89,69,44,0.00,40.00,5,2,0,0.00
2013-3-9,43,33,24,30,27,22,93,78,59,0.00,40.00,11,5,0,0.00
2013-3-10,34,34,34,30,30,30,85,85,85,0.00,40.00,3,3,0,0.00
2013-3-11,52,47,37,46,40,31,87,78,72,0.00,40.00,18,16,0,0.17
2013-3-12,37,34,31,31,28,24,86,79,69,0.00,40.00,17,13,0,0.00
2013-3-13,31,29,26,27,20,15,88,70,53,0.00,40.00,16,12,0,0.00
2013-3-14,40,30,23,23,17,14,74,60,37,0.00,40.00,10,7,0,0.00
2013-3-15,44,35,29,34,28,22,91,77,60,0.00,40.00,10,6,0,0.07
2013-3-16,34,30,28,32,28,25,95,92,85,0.00,40.00,8,1,0,0.04
2013-3-17,31,27,18,25,18,12,88,69,51,0.00,40.00,8,2,0,0.04
2013-3-18,34,30,24,33,27,17,95,86,74,0.00,40.00,13,9,0,0.09
2013-3-19,34,28,23,30,19,14,86,68,53,0.00,40.00,21,16,0,0.00
2013-3-20,28,25,19,17,13,8,74,59,49,0.00,40.00,14,10,0,0.00
2013-3-21,31,23,16,22,15,10,82,72,57,0.00,40.00,13,10,0,0.00
2013-3-22,41,31,26,23,18,16,74,60,41,0.00,40.00,10,8,0,0.00
2013-3-23,40,30,19,24,21,16,90,71,45,0.00,40.00,7,3,0,0.00
2013-3-24,36,30,26,23,22,19,86,72,54,0.00,40.00,13,7,0,0.00
2013-3-25,38,33,30,31,25,22,87,73,58,0.00,40.00,10,8,0,0.00
2013-3-26,43,36,32,28,27,25,79,68,51,0.00,40.00,11,8,0,0.00
2013-3-27,45,38,29,29,24,22,83,59,40,0.00,40.00,14,9,0,0.00
2013-3-28,51,39,28,29,23,21,74,55,32,0.00,40.00,11,6,0,0.00
2013-3-29,53,38,23,27,21,17,88,56,23,0.00,40.00,8,3,0,0.00
2013-3-30,55,39,22,30,21,-100,92,59,24,0.00,40.00,11,4,0,0.00
2013-3-31,58,47,37,42,33,27,84,60,31,0.00,40.00,15,9,0,0.01
2013-4-1,45,34,26,30,15,9,75,47,28,0.00,40.00,15,12,0,0.00
2013-4-2,41,30,19,18,12,7,75,48,25,0.00,40.00,14,8,0,0.00
2013-4-3,44,31,19,18,12,7,79,49,21,0.00,40.00,12,6,0,0.00
2013-4-4,56,35,18,20,13,6,85,49,14,0.00,40.00,10,4,0,0.00
2013-4-5,51,42,33,29,20,11,68,44,19,0.00,40.00,11,6,0,0.00
2013-4-6,54,41,30,26,21,14,77,48,24,0.00,40.00,14,8,0,0.00
2013-4-7,58,54,43,43,34,19,64,48,24,0.00,40.00,19,14,0,0.00
2013-4-8,68,47,37,54,39,31,89,73,56,0.00,40.00,17,7,0,0.10
2013-4-9,55,46,37,44,40,35,93,80,65,0.00,40.00,10,5,0,0.00
2013-4-10,48,44,41,44,42,39,93,90,83,0.00,40.00,8,5,0,0.50
2013-4-11,41,39,36,39,36,34,93,91,87,0.00,40.00,12,9,0,1.00
2013-4-12,41,38,36,38,35,31,94,85,70,0.00,40.00,16,10,0,0.33
2013-4-13,41,39,37,36,31,28,85,73,62,0.00,40.00,17,12,0,0.00
2013-4-14,47,40,32,33,31,26,92,72,58,0.00,40.00,10,5,0,0.00
2013-4-15,68,53,34,51,43,32,92,69,50,0.00,40.00,14,8,0,0.00
2013-4-16,62,55,48,50,44,37,92,68,44,0.00,40.00,11,7,0,0.35
2013-4-17,53,48,42,38,33,30,73,58,47,0.00,40.00,12,8,0,0.10
2013-4-18,77,58,44,62,51,39,92,80,57,0.00,40.00,23,12,0,0.96
2013-4-19,58,45,37,56,39,28,93,79,67,0.00,40.00,23,15,0,0.20
2013-4-20,41,36,29,30,23,20,83,62,44,0.00,40.00,16,12,0,0.00
2013-4-21,44,35,24,28,25,21,93,69,44,0.00,40.00,10,5,0,0.00
2013-4-22,59,45,31,37,31,26,92,61,29,0.00,40.00,10,5,0,0.00
2013-4-23,70,54,35,53,39,32,92,61,33,0.00,40.00,15,7,0,0.15
2013-4-24,56,42,35,53,38,28,93,86,64,0.00,40.00,13,10,0,0.44
2013-4-25,50,40,32,38,31,27,85,70,42,0.00,40.00,14,9,0,0.05
2013-4-26,59,43,28,39,31,26,94,67,34,0.00,40.00,10,4,0,0.00
2013-4-27,66,51,33,40,32,-100,93,58,27,0.00,40.00,9,4,0,0.00
2013-4-28,54,51,48,52,45,35,93,82,59,0.00,40.00,9,4,0,0.14
2013-4-29,69,57,52,54,51,50,94,82,52,0.00,40.00,7,2,0,0.02
2013-4-30,73,65,55,53,52,51,86,64,47,0.00,40.00,14,8,0,0.00
2013-5-1,79,64,47,57,52,45,92,67,41,0.00,40.00,9,4,0,0.00
2013-5-2,77,64,51,51,48,44,84,57,36,0.00,40.00,12,6,0,0.00
2013-5-3,75,63,54,54,47,39,79,57,31,0.00,40.00,13,6,0,0.00
2013-5-4,67,60,55,47,41,36,74,50,32,0.00,40.00,13,8,0,0.00
2013-5-5,68,59,51,45,40,32,70,53,26,0.00,40.00,11,6,0,0.00
2013-5-6,69,60,50,46,43,39,69,54,43,0.00,40.00,10,5,0,0.00
2013-5-7,72,58,47,52,46,39,77,63,42,0.00,40.00,10,4,0,0.00
2013-5-8,77,63,49,54,49,45,86,63,35,0.00,40.00,12,3,0,0.01
2013-5-9,78,63,47,54,50,45,93,65,33,0.00,40.00,8,3,0,0.00
2013-5-10,72,60,45,59,51,-100,92,77,57,0.00,40.00,15,9,0,0.23
2013-5-11,59,47,39,45,38,-100,87,77,56,0.00,40.00,16,8,0,0.03
2013-5-12,48,41,34,32,29,24,87,63,44,0.00,40.00,16,10,0,0.00
2013-5-13,55,41,25,32,24,19,92,57,24,0.00,40.00,9,4,0,0.00
2013-5-14,77,57,40,53,38,29,71,51,32,0.00,40.00,14,7,0,0.00
2013-5-15,83,72,60,57,50,40,81,51,22,0.00,40.00,15,9,0,0.00
2013-5-16,81,57,48,47,20,-100,80,49,24,0.00,40.00,8,4,0,0.00
2013-5-17,72,58,49,45,32,-100,66,49,34,0.00,40.00,10,6,0,0.00
2013-5-18,74,62,52,47,44,35,71,52,37,0.00,40.00,13,7,0,0.00
2013-5-19,83,68,50,61,54,44,86,62,41,0.00,40.00,11,5,0,0.00
2013-5-20,89,75,58,67,60,55,92,63,34,0.00,40.00,15,6,0,0.00
2013-5-21,85,77,71,64,59,54,74,55,35,0.00,40.00,14,8,0,0.00
2013-5-22,81,70,61,62,59,55,91,69,42,0.00,40.00,17,8,0,0.43
2013-5-23,65,56,45,60,52,40,92,86,75,0.00,40.00,14,8,0,0.18
2013-5-24,58,48,40,40,37,34,91,68,44,0.00,40.00,10,6,0,0.00
2013-5-25,65,51,36,38,35,33,93,60,30,0.00,40.00,6,2,0,0.00
2013-5-26,69,55,36,44,35,30,93,54,25,0.00,40.00,8,2,0,0.00
2013-5-27,56,51,45,52,44,36,93,76,53,0.00,40.00,8,4,0,0.60
2013-5-28,77,64,53,68,59,52,94,84,68,0.00,40.00,11,6,0,0.11
2013-5-29,81,75,69,67,62,60,80,66,52,0.00,40.00,15,9,0,0.00
2013-5-30,87,74,63,69,63,59,88,69,45,0.00,40.00,11,6,0,0.16
2013-5-31,80,73,67,66,64,62,89,74,60,0.00,40.00,15,9,0,0.15
2013-6-1,77,70,63,66,61,-100,92,80,62,0.00,40.00,14,8,0,0.30
2013-6-2,71,66,56,64,57,46,89,74,60,0.00,40.00,12,9,0,0.00
2013-6-3,68,57,44,46,40,36,81,55,31,0.00,40.00,9,5,0,0.00
2013-6-4,69,58,45,48,45,41,91,65,41,0.00,40.00,7,3,0,0.00
2013-6-5,71,61,52,47,42,35,66,50,32,0.00,40.00,9,4,0,0.00
2013-6-6,70,60,54,51,47,40,72,60,51,0.00,40.00,6,4,0,0.00
2013-6-7,61,55,49,51,49,45,89,78,66,0.00,40.00,6,3,0,0.00
2013-6-8,72,62,53,53,52,48,90,70,46,0.00,40.00,7,2,0,0.00
2013-6-9,75,66,59,60,56,53,87,72,54,0.00,40.00,8,4,0,0.01
2013-6-10,71,65,61,66,62,59,93,90,78,0.00,40.00,6,3,0,1.87
2013-6-11,80,70,63,65,63,61,93,78,56,0.00,40.00,7,4,0,0.00
2013-6-12,79,71,61,68,64,59,92,79,62,0.00,40.00,9,2,0,0.03
2013-6-13,77,68,61,63,58,54,92,72,45,0.00,40.00,12,7,0,0.26
2013-6-14,78,67,58,58,55,51,90,67,39,0.00,40.00,8,4,0,0.00
2013-6-15,77,67,55,61,57,51,88,71,49,0.00,40.00,9,4,0,0.00
2013-6-16,80,71,63,64,61,53,92,74,53,0.00,40.00,10,6,0,0.29
2013-6-17,84,70,56,65,58,53,92,68,38,0.00,40.00,6,3,0,0.00
2013-6-18,72,66,56,60,54,46,89,68,43,0.00,40.00,6,4,0,0.04
2013-6-19,72,60,44,52,47,41,89,64,43,0.00,40.00,7,3,0,0.00
2013-6-20,80,63,49,55,50,46,92,65,33,0.00,40.00,5,2,0,0.00
2013-6-22,87,77,67,71,68,65,92,73,54,0.00,40.00,11,5,0,1.23
2013-6-23,88,75,69,69,67,65,91,76,49,0.00,40.00,9,4,0,0.00
2013-6-25,85,78,69,71,69,65,88,73,60,0.00,40.00,8,4,0,0.45
2013-6-26,81,72,65,69,66,62,91,81,65,0.00,40.00,7,3,0,0.30
2013-6-27,83,73,66,70,67,63,92,83,61,0.00,40.00,4,1,0,0.55
2013-6-28,77,67,63,65,62,59,92,85,63,0.00,40.00,9,2,0,0.40
2013-6-29,72,65,59,63,61,57,93,85,71,0.00,40.00,5,1,0,0.06
2013-6-30,76,67,61,61,58,55,87,73,55,0.00,40.00,6,2,0,0.02
2013-7-1,66,62,59,59,54,48,89,75,59,0.00,40.00,6,4,0,0.70
2013-7-2,72,64,59,62,58,55,89,81,70,0.00,40.00,6,2,0,0.02
2013-7-3,82,71,63,68,63,60,90,77,52,0.00,40.00,8,3,0,0.00
2013-7-4,78,72,66,66,64,63,90,77,59,0.00,40.00,6,3,0,0.00
2013-7-5,81,73,67,67,66,64,91,79,58,0.00,40.00,4,1,0,0.09
2013-7-6,81,71,66,69,66,64,91,86,62,0.00,40.00,6,1,0,0.16
2013-7-7,79,72,68,68,66,63,92,80,65,0.00,40.00,8,5,0,0.09
2013-7-8,81,71,65,72,66,62,91,85,71,0.00,40.00,8,3,0,1.10
2013-7-9,86,74,70,73,70,68,93,86,65,0.00,40.00,12,3,0,0.56
2013-7-10,84,73,65,75,64,-100,91,79,58,0.00,40.00,10,6,0,0.04
2013-7-11,79,69,61,60,57,53,91,67,42,0.00,40.00,6,2,0,0.00
2013-7-12,79,67,55,62,58,52,92,73,52,0.00,40.00,4,2,0,0.00
2013-7-13,80,71,59,66,62,56,92,75,53,0.00,40.00,5,3,0,0.00
2013-7-14,85,74,63,71,66,61,92,77,58,0.00,40.00,4,1,0,0.00
2013-7-15,89,78,68,75,71,66,93,79,55,0.00,40.00,3,0,0,0.00
2013-7-16,89,80,74,76,73,71,92,80,58,0.00,40.00,3,0,0,0.00
2013-7-17,90,80,70,75,71,67,92,76,56,0.00,40.00,2,0,0,0.00
2013-7-18,92,83,70,75,72,67,93,72,52,0.00,40.00,2,1,0,0.00
2013-7-19,92,83,74,73,71,70,87,69,48,0.00,40.00,13,8,0,0.00
2013-7-20,86,77,68,71,65,-100,92,71,47,0.00,40.00,11,4,0,1.68
2013-7-21,84,72,63,66,62,59,91,72,47,0.00,40.00,4,2,0,0.00
2013-7-22,79,71,67,68,66,63,91,82,64,0.00,40.00,6,1,0,0.08
2013-7-23,82,71,63,69,64,54,92,80,55,0.00,40.00,10,5,0,0.32
2013-7-24,73,62,50,55,51,48,91,67,43,0.00,40.00,8,3,0,0.00
2013-7-25,76,63,48,56,51,46,92,68,39,0.00,40.00,5,2,0,0.00
2013-7-26,76,65,52,61,56,50,92,74,51,0.00,40.00,7,2,0,0.00
2013-7-27,72,66,57,64,60,52,88,81,73,0.00,40.00,9,5,0,0.04
2013-7-28,65,58,50,52,50,47,91,74,58,0.00,40.00,11,6,0,0.00
2013-7-29,72,60,52,56,52,49,89,75,52,0.00,40.00,8,4,0,0.00
2013-7-30,78,63,47,60,54,45,93,74,46,0.00,40.00,5,2,0,0.00
2013-7-31,76,69,63,65,62,59,91,80,65,0.00,40.00,5,3,0,0.07
2013-8-1,79,69,59,65,60,55,91,75,42,0.00,40.00,9,4,0,0.00
2013-8-2,71,64,53,63,58,50,90,82,72,0.00,40.00,9,3,0,0.00
2013-8-3,80,70,57,63,56,49,92,67,36,0.00,40.00,7,3,0,0.00
2013-8-4,75,64,49,55,52,47,91,67,42,0.00,40.00,8,4,0,0.00
2013-8-5,72,62,49,59,53,46,92,74,46,0.00,40.00,4,1,0,0.00
2013-8-6,77,68,62,63,60,57,89,76,61,0.00,40.00,8,4,0,0.00
2013-8-7,82,70,61,70,65,58,91,83,62,0.00,40.00,9,3,0,0.19
2013-8-8,76,70,64,67,63,61,92,79,66,0.00,40.00,5,2,0,0.00
2013-8-9,79,69,59,62,57,51,89,68,41,0.00,40.00,6,2,0,0.00
2013-8-10,77,67,58,61,59,56,92,76,54,0.00,40.00,4,1,0,0.00
2013-8-11,79,67,51,61,56,49,93,71,43,0.00,40.00,5,2,0,0.00
2013-8-12,74,66,62,65,62,59,91,87,74,0.00,40.00,5,1,0,0.98
2013-8-13,68,61,53,62,51,-100,92,73,46,0.00,40.00,10,5,0,0.04
2013-8-14,72,57,45,54,47,42,88,70,40,0.00,40.00,8,3,0,0.00
2013-8-15,73,54,43,54,39,-100,93,70,39,0.00,40.00,5,1,0,0.00
2013-8-16,78,61,49,56,47,-100,93,68,37,0.00,40.00,4,1,0,0.00
2013-8-17,77,62,48,58,50,-100,93,71,43,0.00,40.00,5,2,0,0.00
2013-8-18,78,66,52,63,56,50,93,73,47,0.00,40.00,5,2,0,0.00
2013-8-19,82,63,52,64,50,-100,93,73,44,0.00,40.00,6,1,0,0.00
2013-8-20,83,69,55,66,60,53,93,76,51,0.00,40.00,7,2,0,0.00
2013-8-21,84,72,61,67,63,58,90,74,53,0.00,40.00,8,3,0,0.00
2013-8-22,81,72,67,67,65,64,92,80,61,0.00,40.00,5,1,0,0.36
2013-8-23,83,71,58,64,57,48,92,66,30,0.00,40.00,7,2,0,0.01
2013-8-24,79,66,52,63,53,-100,92,69,43,0.00,40.00,5,2,0,0.00
2013-8-25,84,68,50,65,57,48,93,72,43,0.00,40.00,9,3,0,0.00
2013-8-26,86,74,62,68,64,58,88,71,52,0.00,40.00,11,6,0,0.01
2013-8-27,80,73,70,72,68,67,90,86,74,0.00,40.00,8,3,0,0.35
2013-8-28,82,78,69,71,69,66,89,74,67,0.00,40.00,6,3,0,0.00
2013-8-29,84,72,61,69,65,59,93,79,57,0.00,40.00,2,0,0,0.00
2013-8-30,85,72,59,70,64,57,93,76,52,0.00,40.00,10,4,0,0.00
2013-8-31,84,74,67,69,65,-100,91,77,55,0.00,40.00,6,1,0,0.76
2013-9-1,81,74,68,69,66,64,87,78,64,0.00,40.00,7,1,0,0.00
2013-9-2,77,70,61,67,61,52,92,75,53,0.00,40.00,10,4,0,0.00
2013-9-3,74,63,54,55,52,49,89,69,50,0.00,40.00,8,4,0,0.00
2013-9-4,79,63,49,58,53,47,93,73,44,0.00,40.00,9,4,0,0.00
2013-9-5,73,63,54,56,50,43,91,66,36,0.00,40.00,7,2,0,0.00
2013-9-6,74,59,44,54,48,42,92,69,39,0.00,40.00,5,2,0,0.00
2013-9-7,81,63,49,68,55,-100,91,78,56,0.00,40.00,7,2,0,0.02
2013-9-8,72,67,60,64,59,51,90,75,52,0.00,40.00,6,2,0,0.00
2013-9-9,79,63,51,69,59,48,91,85,69,0.00,40.00,5,1,0,0.64
2013-9-10,92,80,66,71,67,63,90,69,42,0.00,40.00,6,1,0,0.00
2013-9-11,91,82,69,70,68,63,90,64,45,0.00,40.00,10,2,0,0.55
2013-9-12,79,70,58,66,60,50,92,75,41,0.00,40.00,11,4,0,0.01
2013-9-13,62,53,42,48,44,39,89,71,46,0.00,40.00,11,5,0,0.00
2013-9-14,68,50,35,47,36,-100,94,68,28,0.00,40.00,4,1,0,0.00
2013-9-15,66,52,42,53,46,39,92,82,52,0.00,40.00,7,1,0,0.09
2013-9-16,63,56,47,53,49,43,93,78,51,0.00,40.00,9,2,0,0.00
2013-9-17,65,51,37,49,42,35,93,75,47,0.00,40.00,6,2,0,0.00
2013-9-18,62,44,43,59,42,41,92,91,88,0.00,40.00,0,0,0,0.00
2013-9-19,80,67,55,66,60,53,92,81,57,0.00,40.00,8,2,0,0.00
2013-9-20,83,72,68,68,66,64,91,82,56,0.00,40.00,11,5,0,0.20
2013-9-21,68,62,53,65,52,-100,91,73,49,0.00,40.00,11,4,0,0.09
2013-9-22,62,54,46,47,42,38,85,63,44,0.00,40.00,8,4,0,0.00
2013-9-23,62,51,41,44,42,38,91,74,48,0.00,40.00,6,2,0,0.00
2013-9-24,65,52,41,50,45,40,93,79,52,0.00,40.00,6,1,0,0.00
2013-9-25,69,54,43,55,48,40,93,81,55,0.00,40.00,5,1,0,0.00
2013-9-26,74,56,40,56,45,38,94,72,33,0.00,40.00,5,1,0,0.00
2013-9-27,72,56,40,58,48,38,93,77,49,0.00,40.00,7,2,0,0.00
2013-9-28,76,59,44,57,48,-100,93,71,38,0.00,40.00,8,3,0,0.00
2013-9-29,63,61,58,60,55,51,92,82,67,0.00,40.00,6,2,0,0.12
2013-9-30,70,60,52,56,54,49,93,79,51,0.00,40.00,8,2,0,0.00
2013-10-1,64,60,57,57,55,54,89,84,77,0.00,40.00,2,0,0,0.00
2013-10-2,81,66,54,60,53,46,92,69,28,0.00,40.00,4,1,0,0.00
2013-10-3,77,64,54,66,59,51,92,84,66,0.00,40.00,9,2,0,0.13
2013-10-4,78,70,65,67,63,61,90,81,63,0.00,40.00,7,4,0,0.06
2013-10-5,74,69,64,66,64,61,91,84,73,0.00,40.00,0,0,0,0.00
2013-10-6,71,65,56,65,61,52,91,87,76,0.00,40.00,8,5,0,0.16
2013-10-7,58,51,43,52,43,39,90,74,57,0.00,40.00,15,7,0,0.00
2013-10-8,67,49,35,47,39,33,94,72,36,0.00,40.00,6,2,0,0.00
2013-10-9,68,59,42,51,44,39,90,60,35,0.00,40.00,8,4,0,0.00
2013-10-10,70,51,35,50,39,34,94,71,28,0.00,40.00,6,2,0,0.00
2013-10-11,71,51,36,54,44,34,94,78,45,0.00,40.00,5,1,0,0.00
2013-10-12,76,58,43,58,46,-100,93,71,29,0.00,40.00,7,3,0,0.00
2013-10-13,69,58,45,54,44,36,92,63,29,0.00,40.00,9,3,0,0.00
2013-10-14,62,53,40,46,42,37,93,69,49,0.00,40.00,5,2,0,0.00
2013-10-15,62,50,36,58,46,34,94,86,72,0.00,40.00,9,4,0,0.08
2013-10-16,62,58,52,59,49,42,91,74,52,0.00,40.00,12,8,0,0.01
2013-10-17,52,48,41,46,44,39,90,84,73,0.00,40.00,11,5,0,0.06
2013-10-18,63,50,39,44,40,36,91,72,37,0.00,40.00,13,6,0,0.00
2013-10-19,48,42,37,41,36,-100,90,82,66,0.00,40.00,11,3,0,0.16
2013-10-20,60,48,37,40,36,33,85,67,39,0.00,40.00,12,7,0,0.00
2013-10-21,55,50,38,46,41,33,86,72,60,0.00,40.00,14,9,0,0.03
2013-10-22,49,40,31,33,30,27,84,68,45,0.00,40.00,12,7,0,0.00
2013-10-23,48,37,25,35,30,24,93,77,42,0.00,40.00,8,4,0,0.01
2013-10-24,45,36,29,34,29,25,92,76,45,0.00,40.00,9,4,0,0.00
2013-10-25,46,36,25,35,27,23,94,73,47,0.00,40.00,10,5,0,0.00
2013-10-26,49,42,36,35,26,-100,73,56,50,0.00,40.00,17,12,0,0.00
2013-10-27,53,40,26,34,28,23,92,66,37,0.00,40.00,11,4,0,0.00
2013-10-28,54,39,26,39,30,-100,91,73,56,0.00,40.00,6,2,0,0.00
2013-10-29,53,42,29,38,33,26,89,72,56,0.00,40.00,4,1,0,0.00
2013-10-30,63,45,28,49,37,27,94,76,43,0.00,40.00,8,3,0,0.10
2013-10-31,62,59,54,59,56,51,92,89,85,0.00,40.00,17,12,0,1.48
2013-11-1,60,49,45,57,43,38,89,78,70,0.00,40.00,19,12,0,0.05
2013-11-2,48,44,41,43,38,-100,91,82,68,0.00,40.00,10,5,0,0.13
2013-11-3,40,40,40,34,34,34,79,79,79,0.00,40.00,1,1,0,0.00
2013-11-4,46,44,43,34,30,25,67,55,43,0.00,40.00,10,7,0,0.00
2013-11-5,54,49,43,46,41,35,86,75,67,0.00,40.00,9,5,0,0.00
2013-11-6,55,53,45,51,45,38,86,74,56,0.00,40.00,18,13,0,0.13
2013-11-7,46,41,35,38,30,26,83,67,47,0.00,40.00,15,10,0,0.00
2013-11-8,44,37,31,32,28,23,87,71,43,0.00,40.00,9,6,0,0.00
2013-11-9,56,47,37,39,31,-100,74,57,51,0.00,40.00,21,13,0,0.00
2013-11-10,47,42,32,37,28,24,83,59,45,0.00,40.00,15,9,0,0.00
2013-11-11,45,37,29,38,31,22,91,78,61,0.00,40.00,12,9,0,0.12
2013-11-12,34,28,22,22,19,16,81,67,50,0.00,40.00,13,8,0,0.00
2013-11-13,32,23,19,23,18,16,86,81,66,0.00,40.00,13,4,0,0.00
2013-11-14,50,42,34,24,22,20,60,44,32,0.00,40.00,18,14,0,0.00
2013-11-15,48,41,35,30,26,23,61,54,43,0.00,40.00,13,9,0,0.00
2013-11-16,58,46,33,49,38,-100,89,76,63,0.00,40.00,16,8,0,0.00
2013-11-17,64,58,48,56,52,41,85,79,67,0.00,40.00,26,17,0,0.46
2013-11-18,47,43,40,40,34,30,79,69,61,0.00,40.00,22,17,0,0.00
2013-11-19,43,35,27,23,21,18,81,59,36,0.00,40.00,6,3,0,0.00
2013-11-20,42,34,23,29,25,21,92,71,48,0.00,40.00,13,6,0,0.00
2013-11-21,45,42,38,42,37,26,92,80,57,0.00,40.00,13,5,0,0.42
2013-11-22,45,40,29,43,37,24,93,86,71,0.00,40.00,13,5,0,0.05
2013-11-23,30,25,18,24,15,-100,88,70,47,0.00,40.00,16,9,0,0.00
2013-11-24,25,19,13,14,9,6,81,66,43,0.00,40.00,11,7,0,0.00
2013-11-25,30,24,18,22,15,11,79,67,51,0.00,40.00,17,13,0,0.00
2013-11-26,35,31,29,26,24,21,82,75,66,0.00,40.00,11,7,0,0.00
2013-11-27,29,25,19,23,14,9,78,62,46,0.00,40.00,15,11,0,0.00
2013-11-28,28,23,17,18,14,10,84,68,52,0.00,40.00,12,4,0,0.00
2013-11-29,37,25,16,21,17,14,90,74,38,0.00,40.00,5,1,0,0.00
2013-11-30,45,34,27,25,20,-100,72,61,44,0.00,40.00,12,8,0,0.00
2013-12-1,46,36,29,31,27,24,86,72,55,0.00,40.00,9,5,0,0.00
2013-12-2,40,30,23,30,24,21,93,79,48,0.00,40.00,5,1,0,0.00
2013-12-3,39,35,25,35,30,22,90,82,69,0.00,40.00,9,4,0,0.01
2013-12-4,59,46,37,51,42,34,91,84,75,0.00,40.00,15,5,0,0.00
2013-12-5,59,43,31,52,34,21,83,71,62,0.00,40.00,16,12,0,0.00
2013-12-6,31,27,21,22,18,14,72,65,58,0.00,40.00,8,6,0,0.00
2013-12-7,26,19,12,13,8,-100,82,65,45,0.00,40.00,10,4,0,0.00
2013-12-8,28,19,11,26,14,8,93,81,69,0.00,40.00,10,5,0,0.00
2013-12-9,28,25,19,26,20,11,94,81,70,0.00,40.00,17,12,0,0.00
2013-12-10,22,16,10,11,7,2,77,67,50,0.00,40.00,21,12,0,0.00
2013-12-11,23,18,15,17,12,8,86,76,70,0.00,40.00,12,10,0,0.00
2013-12-12,14,12,11,4,1,-1,74,61,54,0.00,40.00,17,10,0,0.00
2013-12-13,30,21,14,19,13,7,78,71,58,0.00,40.00,10,5,0,0.00
2013-12-14,23,20,19,20,16,-100,91,89,77,0.00,40.00,11,8,0,0.00
2013-12-15,23,19,13,19,15,7,91,84,76,0.00,40.00,17,11,0,0.00
2013-12-16,18,10,-3,12,4,-7,87,76,61,0.00,40.00,10,3,0,0.07
2013-12-17,22,19,10,19,15,7,88,86,83,0.00,40.00,15,8,0,0.00
2013-12-18,25,20,14,19,15,10,91,78,62,0.00,40.00,14,10,0,0.00
2013-12-19,37,33,23,31,26,14,84,75,63,0.00,40.00,13,6,0,0.03
2013-12-20,40,37,34,38,35,31,94,91,84,0.00,40.00,10,3,0,0.29
2013-12-21,37,33,32,36,31,-100,95,93,92,0.00,40.00,9,2,0,1.04
2013-12-22,39,35,32,35,32,30,94,89,80,0.00,40.00,18,8,0,0.31
2013-12-23,33,29,22,30,23,13,89,77,65,0.00,40.00,14,10,0,0.00
2013-12-24,21,16,11,11,8,6,86,72,56,0.00,40.00,13,8,0,0.00
2013-12-25,25,20,13,21,15,9,86,81,68,0.00,40.00,12,8,0,0.00
2013-12-26,27,26,24,24,20,16,92,79,70,0.00,40.00,14,10,0,0.00
2013-12-27,39,33,27,30,27,20,81,77,70,0.00,40.00,13,8,0,0.00
2013-12-28,45,38,34,34,29,-100,82,74,65,0.00,40.00,15,11,0,0.00
2013-12-29,43,35,25,31,28,19,87,75,62,0.00,40.00,14,9,0,0.00
2013-12-30,25,20,17,19,10,6,77,62,53,0.00,40.00,13,6,0,0.00
2013-12-31,21,17,15,13,10,7,85,72,64,0.00,40.00,17,12,0,0.00
2014-1-1,16,14,12,13,11,9,88,86,84,0.00,40.00,7,5,0,0.00
2014-1-2,15,12,5,12,8,-3,88,84,70,0.00,40.00,17,10,0,0.00